sensor_id;sensor_type;location;lat;lon;timestamp;pressure;altitude;pressure_sealevel;temperature;humidity
69570;BME280;56781;42.292;23.146;2022-07-09T00:02:00;95420.13;;;15.68;100.00
69570;BME280;56781;42.292;23.146;2022-07-09T00:04:27;95422.16;;;15.59;100.00
69570;BME280;56781;42.292;23.146;2022-07-09T00:06:53;95422.56;;;15.48;100.00
69570;BME280;56781;42.292;23.146;2022-07-09T00:09:20;95405.38;;;15.53;100.00
69570;BME280;56781;42.292;23.146;2022-07-09T00:11:47;95414.28;;;15.66;100.00
69570;BME280;56781;42.292;23.146;2022-07-09T00:14:14;95386.59;;;15.57;100.00
69570;BME280;56781;42.292;23.146;2022-07-09T00:16:41;95411.38;;;15.71;100.00
69570;BME280;56781;42.292;23.146;2022-07-09T00:19:08;95398.16;;;15.78;100.00
69570;BME280;56781;42.292;23.146;2022-07-09T00:21:36;95394.53;;;15.74;100.00
69570;BME280;56781;42.292;23.146;2022-07-09T00:24:02;95364.81;;;15.62;100.00
69570;BME280;56781;42.292;23.146;2022-07-09T00:26:30;95388.69;;;15.84;100.00
69570;BME280;56781;42.292;23.146;2022-07-09T00:29:00;95381.63;;;15.80;100.00
69570;BME280;56781;42.292;23.146;2022-07-09T00:31:27;95389.81;;;15.95;100.00
69570;BME280;56781;42.292;23.146;2022-07-09T00:33:54;95386.22;;;16.04;100.00
69570;BME280;56781;42.292;23.146;2022-07-09T00:36:21;95350.91;;;15.84;100.00
69570;BME280;56781;42.292;23.146;2022-07-09T00:38:48;95356.31;;;15.97;100.00
69570;BME280;56781;42.292;23.146;2022-07-09T00:41:15;95370.81;;;16.16;100.00
69570;BME280;56781;42.292;23.146;2022-07-09T00:43:49;95345.16;;;15.98;100.00
69570;BME280;56781;42.292;23.146;2022-07-09T00:46:17;95336.84;;;16.03;100.00
69570;BME280;56781;42.292;23.146;2022-07-09T00:48:44;95309.94;;;15.82;100.00
69570;BME280;56781;42.292;23.146;2022-07-09T00:51:12;95330.09;;;15.97;100.00
69570;BME280;56781;42.292;23.146;2022-07-09T00:53:41;95307.03;;;15.87;100.00
69570;BME280;56781;42.292;23.146;2022-07-09T00:56:08;95336.28;;;16.10;100.00
69570;BME280;56781;42.292;23.146;2022-07-09T00:58:36;95332.47;;;15.86;100.00
69570;BME280;56781;42.292;23.146;2022-07-09T01:01:03;95305.91;;;15.76;100.00
69570;BME280;56781;42.292;23.146;2022-07-09T01:03:31;95333.56;;;15.98;100.00
69570;BME280;56781;42.292;23.146;2022-07-09T01:05:58;95326.06;;;15.79;100.00
69570;BME280;56781;42.292;23.146;2022-07-09T01:08:25;95350.78;;;15.93;100.00
69570;BME280;56781;42.292;23.146;2022-07-09T01:10:53;95341.91;;;15.92;100.00
69570;BME280;56781;42.292;23.146;2022-07-09T01:13:20;95347.97;;;15.89;100.00
69570;BME280;56781;42.292;23.146;2022-07-09T01:15:47;95342.69;;;15.93;100.00
69570;BME280;56781;42.292;23.146;2022-07-09T01:18:14;95344.38;;;15.98;100.00
69570;BME280;56781;42.292;23.146;2022-07-09T01:20:41;95312.44;;;15.87;100.00
69570;BME280;56781;42.292;23.146;2022-07-09T01:23:08;95293.44;;;15.84;100.00
69570;BME280;56781;42.292;23.146;2022-07-09T01:25:41;95339.63;;;16.19;100.00
69570;BME280;56781;42.292;23.146;2022-07-09T01:28:10;95336.06;;;16.03;100.00
69570;BME280;56781;42.292;23.146;2022-07-09T01:30:39;95337.84;;;16.11;100.00
69570;BME280;56781;42.292;23.146;2022-07-09T01:33:10;95315.03;;;15.96;100.00
69570;BME280;56781;42.292;23.146;2022-07-09T01:35:37;95348.31;;;16.00;100.00
69570;BME280;56781;42.292;23.146;2022-07-09T01:38:03;95344.16;;;16.03;100.00
69570;BME280;56781;42.292;23.146;2022-07-09T01:40:30;95340.66;;;16.02;100.00
69570;BME280;56781;42.292;23.146;2022-07-09T01:42:57;95277.47;;;15.79;100.00
69570;BME280;56781;42.292;23.146;2022-07-09T01:45:25;95310.84;;;16.11;100.00
69570;BME280;56781;42.292;23.146;2022-07-09T01:47:52;95339.63;;;16.19;100.00
69570;BME280;56781;42.292;23.146;2022-07-09T01:50:19;95330.41;;;15.95;100.00
69570;BME280;56781;42.292;23.146;2022-07-09T01:52:46;95328.19;;;15.98;100.00
69570;BME280;56781;42.292;23.146;2022-07-09T01:55:17;95304.56;;;15.94;100.00
69570;BME280;56781;42.292;23.146;2022-07-09T01:57:47;95307.50;;;16.02;100.00
69570;BME280;56781;42.292;23.146;2022-07-09T02:00:14;95316.94;;;16.08;100.00
69570;BME280;56781;42.292;23.146;2022-07-09T02:02:41;95311.53;;;16.08;100.00
69570;BME280;56781;42.292;23.146;2022-07-09T02:05:08;95318.84;;;16.07;100.00
69570;BME280;56781;42.292;23.146;2022-07-09T02:07:36;95326.94;;;16.07;100.00
69570;BME280;56781;42.292;23.146;2022-07-09T02:10:03;95291.28;;;15.89;100.00
69570;BME280;56781;42.292;23.146;2022-07-09T02:12:31;95307.25;;;16.07;100.00
69570;BME280;56781;42.292;23.146;2022-07-09T02:14:58;95273.97;;;15.90;100.00
69570;BME280;56781;42.292;23.146;2022-07-09T02:17:25;95279.03;;;15.92;100.00
69570;BME280;56781;42.292;23.146;2022-07-09T02:19:52;95315.00;;;16.08;100.00
69570;BME280;56781;42.292;23.146;2022-07-09T02:22:22;95291.94;;;15.99;100.00
69570;BME280;56781;42.292;23.146;2022-07-09T02:24:49;95309.72;;;16.00;100.00
69570;BME280;56781;42.292;23.146;2022-07-09T02:27:20;95306.34;;;16.03;100.00
69570;BME280;56781;42.292;23.146;2022-07-09T02:29:50;95289.28;;;15.86;100.00
69570;BME280;56781;42.292;23.146;2022-07-09T02:32:17;95307.50;;;15.89;100.00
69570;BME280;56781;42.292;23.146;2022-07-09T02:34:44;95292.84;;;15.90;100.00
69570;BME280;56781;42.292;23.146;2022-07-09T02:37:11;95319.84;;;16.03;100.00
69570;BME280;56781;42.292;23.146;2022-07-09T02:39:38;95333.44;;;16.06;100.00
69570;BME280;56781;42.292;23.146;2022-07-09T02:42:05;95283.22;;;15.77;100.00
69570;BME280;56781;42.292;23.146;2022-07-09T02:44:32;95334.50;;;16.02;100.00
69570;BME280;56781;42.292;23.146;2022-07-09T02:46:59;95309.63;;;15.96;100.00
69570;BME280;56781;42.292;23.146;2022-07-09T02:49:26;95297.59;;;15.81;100.00
69570;BME280;56781;42.292;23.146;2022-07-09T02:51:53;95330.41;;;15.95;100.00
69570;BME280;56781;42.292;23.146;2022-07-09T02:54:21;95279.59;;;15.73;100.00
69570;BME280;56781;42.292;23.146;2022-07-09T02:56:48;95333.03;;;16.04;100.00
69570;BME280;56781;42.292;23.146;2022-07-09T02:59:15;95306.47;;;15.94;100.00
69570;BME280;56781;42.292;23.146;2022-07-09T03:01:42;95293.66;;;15.79;100.00
69570;BME280;56781;42.292;23.146;2022-07-09T03:04:09;95297.59;;;15.93;100.00
69570;BME280;56781;42.292;23.146;2022-07-09T03:06:36;95310.75;;;15.95;100.00
69570;BME280;56781;42.292;23.146;2022-07-09T03:09:04;95295.34;;;15.83;100.00
69570;BME280;56781;42.292;23.146;2022-07-09T03:11:32;95298.50;;;15.85;100.00
69570;BME280;56781;42.292;23.146;2022-07-09T03:14:00;95314.56;;;15.94;100.00
69570;BME280;56781;42.292;23.146;2022-07-09T03:16:30;95327.50;;;16.01;100.00
69570;BME280;56781;42.292;23.146;2022-07-09T03:18:57;95331.88;;;16.05;100.00
69570;BME280;56781;42.292;23.146;2022-07-09T03:21:27;95333.13;;;16.08;100.00
69570;BME280;56781;42.292;23.146;2022-07-09T03:23:54;95293.75;;;15.82;100.00
69570;BME280;56781;42.292;23.146;2022-07-09T03:26:21;95336.16;;;16.06;100.00
69570;BME280;56781;42.292;23.146;2022-07-09T03:28:48;95343.38;;;16.02;100.00
69570;BME280;56781;42.292;23.146;2022-07-09T03:31:15;95342.13;;;16.00;100.00
69570;BME280;56781;42.292;23.146;2022-07-09T03:33:42;95333.56;;;15.98;99.91
69570;BME280;56781;42.292;23.146;2022-07-09T03:36:09;95346.53;;;15.92;99.19
69570;BME280;56781;42.292;23.146;2022-07-09T03:38:37;95282.28;;;15.61;99.79
69570;BME280;56781;42.292;23.146;2022-07-09T03:41:04;95334.03;;;15.87;100.00
69570;BME280;56781;42.292;23.146;2022-07-09T03:43:31;95325.81;;;15.84;100.00
69570;BME280;56781;42.292;23.146;2022-07-09T03:45:58;95338.31;;;15.88;100.00
69570;BME280;56781;42.292;23.146;2022-07-09T03:48:25;95320.09;;;15.73;100.00
69570;BME280;56781;42.292;23.146;2022-07-09T03:50:56;95347.31;;;15.92;99.95
69570;BME280;56781;42.292;23.146;2022-07-09T03:53:25;95321.31;;;15.76;100.00
69570;BME280;56781;42.292;23.146;2022-07-09T03:55:52;95332.69;;;15.69;100.00
69570;BME280;56781;42.292;23.146;2022-07-09T03:58:20;95355.41;;;15.92;100.00
69570;BME280;56781;42.292;23.146;2022-07-09T04:00:47;95344.47;;;16.01;99.69
69570;BME280;56781;42.292;23.146;2022-07-09T04:03:15;95296.00;;;15.68;98.91
69570;BME280;56781;42.292;23.146;2022-07-09T04:05:42;95318.31;;;15.77;99.69
69570;BME280;56781;42.292;23.146;2022-07-09T04:08:11;95328.19;;;15.85;99.08
69570;BME280;56781;42.292;23.146;2022-07-09T04:10:38;95332.78;;;15.97;99.73
69570;BME280;56781;42.292;23.146;2022-07-09T04:13:05;95352.25;;;16.03;99.14
69570;BME280;56781;42.292;23.146;2022-07-09T04:15:39;95350.00;;;16.05;98.48
69570;BME280;56781;42.292;23.146;2022-07-09T04:18:06;95357.22;;;16.13;97.75
69570;BME280;56781;42.292;23.146;2022-07-09T04:20:34;95339.78;;;15.86;99.21
69570;BME280;56781;42.292;23.146;2022-07-09T04:23:01;95367.78;;;16.06;98.27
69570;BME280;56781;42.292;23.146;2022-07-09T04:25:28;95334.84;;;15.88;98.15
69570;BME280;56781;42.292;23.146;2022-07-09T04:27:58;95337.88;;;15.86;98.56
69570;BME280;56781;42.292;23.146;2022-07-09T04:30:29;95369.56;;;16.14;98.49
69570;BME280;56781;42.292;23.146;2022-07-09T04:32:56;95367.56;;;16.11;98.08
69570;BME280;56781;42.292;23.146;2022-07-09T04:35:23;95329.75;;;15.86;98.08
69570;BME280;56781;42.292;23.146;2022-07-09T04:37:50;95337.41;;;15.97;98.43
69570;BME280;56781;42.292;23.146;2022-07-09T04:40:17;95371.50;;;16.13;98.47
69570;BME280;56781;42.292;23.146;2022-07-09T04:42:44;95366.66;;;16.19;97.56
69570;BME280;56781;42.292;23.146;2022-07-09T04:45:11;95369.81;;;16.21;96.85
69570;BME280;56781;42.292;23.146;2022-07-09T04:47:38;95343.47;;;16.06;97.02
69570;BME280;56781;42.292;23.146;2022-07-09T04:50:05;95370.47;;;16.18;98.46
69570;BME280;56781;42.292;23.146;2022-07-09T04:52:32;95367.56;;;16.23;96.80
69570;BME280;56781;42.292;23.146;2022-07-09T04:54:59;95377.44;;;16.31;97.44
69570;BME280;56781;42.292;23.146;2022-07-09T04:57:26;95351.13;;;16.16;98.26
69570;BME280;56781;42.292;23.146;2022-07-09T04:59:58;95352.13;;;16.24;97.01
69570;BME280;56781;42.292;23.146;2022-07-09T05:02:25;95374.16;;;16.38;95.89
69570;BME280;56781;42.292;23.146;2022-07-09T05:04:52;95379.78;;;16.45;97.42
69570;BME280;56781;42.292;23.146;2022-07-09T05:07:19;95360.66;;;16.26;98.12
69570;BME280;56781;42.292;23.146;2022-07-09T05:09:46;95360.88;;;16.33;96.70
69570;BME280;56781;42.292;23.146;2022-07-09T05:12:13;95378.63;;;16.58;96.85
69570;BME280;56781;42.292;23.146;2022-07-09T05:14:40;95385.06;;;16.54;96.73
69570;BME280;56781;42.292;23.146;2022-07-09T05:17:07;95385.06;;;16.54;97.25
69570;BME280;56781;42.292;23.146;2022-07-09T05:19:34;95387.41;;;16.55;97.76
69570;BME280;56781;42.292;23.146;2022-07-09T05:22:01;95365.72;;;16.39;96.74
69570;BME280;56781;42.292;23.146;2022-07-09T05:24:29;95352.44;;;16.34;97.73
69570;BME280;56781;42.292;23.146;2022-07-09T05:26:56;95392.94;;;16.59;97.27
69570;BME280;56781;42.292;23.146;2022-07-09T05:29:23;95397.41;;;16.67;96.41
69570;BME280;56781;42.292;23.146;2022-07-09T05:31:51;95359.84;;;16.50;97.34
69570;BME280;56781;42.292;23.146;2022-07-09T05:34:18;95380.75;;;16.65;96.50
69570;BME280;56781;42.292;23.146;2022-07-09T05:36:45;95399.97;;;16.76;96.40
69570;BME280;56781;42.292;23.146;2022-07-09T05:39:12;95373.28;;;16.74;94.96
69570;BME280;56781;42.292;23.146;2022-07-09T05:41:42;95340.59;;;16.51;95.27
69570;BME280;56781;42.292;23.146;2022-07-09T05:44:09;95390.75;;;16.89;96.11
69570;BME280;56781;42.292;23.146;2022-07-09T05:46:41;95368.59;;;16.59;96.02
69570;BME280;56781;42.292;23.146;2022-07-09T05:49:10;95393.09;;;16.91;97.04
69570;BME280;56781;42.292;23.146;2022-07-09T05:51:37;95398.47;;;17.03;95.81
69570;BME280;56781;42.292;23.146;2022-07-09T05:54:04;95375.34;;;17.05;95.21
69570;BME280;56781;42.292;23.146;2022-07-09T05:56:31;95387.84;;;17.10;92.81
69570;BME280;56781;42.292;23.146;2022-07-09T05:58:58;95396.06;;;17.14;94.56
69570;BME280;56781;42.292;23.146;2022-07-09T06:01:25;95361.47;;;17.07;93.97
69570;BME280;56781;42.292;23.146;2022-07-09T06:03:53;95369.56;;;17.07;92.95
69570;BME280;56781;42.292;23.146;2022-07-09T06:06:20;95368.47;;;17.08;94.10
69570;BME280;56781;42.292;23.146;2022-07-09T06:08:47;95386.47;;;17.16;93.46
69570;BME280;56781;42.292;23.146;2022-07-09T06:11:14;95394.50;;;17.28;93.23
69570;BME280;56781;42.292;23.146;2022-07-09T06:13:41;95342.59;;;16.95;94.19
69570;BME280;56781;42.292;23.146;2022-07-09T06:16:08;95317.44;;;16.78;92.46
69570;BME280;56781;42.292;23.146;2022-07-09T06:18:35;95375.44;;;17.09;94.05
69570;BME280;56781;42.292;23.146;2022-07-09T06:21:03;95334.81;;;16.93;93.23
69570;BME280;56781;42.292;23.146;2022-07-09T06:23:30;95375.69;;;17.32;93.09
69570;BME280;56781;42.292;23.146;2022-07-09T06:25:58;95362.03;;;17.28;91.63
69570;BME280;56781;42.292;23.146;2022-07-09T06:28:26;95362.28;;;17.23;92.32
69570;BME280;56781;42.292;23.146;2022-07-09T06:30:53;95381.22;;;17.52;92.71
69570;BME280;56781;42.292;23.146;2022-07-09T06:33:20;95365.66;;;17.48;92.16
69570;BME280;56781;42.292;23.146;2022-07-09T06:35:47;95378.16;;;17.69;92.91
69570;BME280;56781;42.292;23.146;2022-07-09T06:38:14;95347.00;;;17.59;91.38
69570;BME280;56781;42.292;23.146;2022-07-09T06:40:41;95382.06;;;17.84;89.96
69570;BME280;56781;42.292;23.146;2022-07-09T06:43:08;95375.44;;;17.69;90.29
69570;BME280;56781;42.292;23.146;2022-07-09T06:45:39;95384.69;;;17.52;89.73
69570;BME280;56781;42.292;23.146;2022-07-09T06:48:06;95341.38;;;17.36;91.69
69570;BME280;56781;42.292;23.146;2022-07-09T06:50:33;95386.38;;;17.72;90.23
69570;BME280;56781;42.292;23.146;2022-07-09T06:53:00;95349.69;;;17.59;90.42
69570;BME280;56781;42.292;23.146;2022-07-09T06:55:27;95392.00;;;17.80;88.95
69570;BME280;56781;42.292;23.146;2022-07-09T06:57:55;95372.25;;;17.79;90.04
69570;BME280;56781;42.292;23.146;2022-07-09T07:00:23;95383.00;;;17.91;90.05
69570;BME280;56781;42.292;23.146;2022-07-09T07:02:50;95386.84;;;17.90;90.21
69570;BME280;56781;42.292;23.146;2022-07-09T07:05:17;95349.44;;;17.80;89.25
69570;BME280;56781;42.292;23.146;2022-07-09T07:07:44;95383.78;;;17.92;90.38
69570;BME280;56781;42.292;23.146;2022-07-09T07:10:11;95348.47;;;17.72;89.55
69570;BME280;56781;42.292;23.146;2022-07-09T07:12:38;95356.97;;;17.87;89.95
69570;BME280;56781;42.292;23.146;2022-07-09T07:15:07;95330.16;;;17.82;88.87
69570;BME280;56781;42.292;23.146;2022-07-09T07:17:35;95302.47;;;17.57;89.30
69570;BME280;56781;42.292;23.146;2022-07-09T07:20:02;95347.34;;;18.05;89.74
69570;BME280;56781;42.292;23.146;2022-07-09T07:22:29;95382.47;;;18.53;90.06
69570;BME280;56781;42.292;23.146;2022-07-09T07:24:56;95373.38;;;18.45;87.97
69570;BME280;56781;42.292;23.146;2022-07-09T07:27:23;95326.78;;;18.04;89.30
69570;BME280;56781;42.292;23.146;2022-07-09T07:29:50;95364.44;;;18.25;87.33
69570;BME280;56781;42.292;23.146;2022-07-09T07:32:17;95358.53;;;18.04;87.14
69570;BME280;56781;42.292;23.146;2022-07-09T07:34:44;95367.53;;;18.08;85.83
69570;BME280;56781;42.292;23.146;2022-07-09T07:37:11;95370.13;;;18.04;86.87
69570;BME280;56781;42.292;23.146;2022-07-09T07:39:38;95368.97;;;18.21;87.48
69570;BME280;56781;42.292;23.146;2022-07-09T07:42:05;95386.91;;;18.26;85.79
69570;BME280;56781;42.292;23.146;2022-07-09T07:44:33;95363.03;;;18.15;85.26
69570;BME280;56781;42.292;23.146;2022-07-09T07:47:01;95391.34;;;18.18;84.04
69570;BME280;56781;42.292;23.146;2022-07-09T07:49:28;95394.78;;;18.15;85.46
69570;BME280;56781;42.292;23.146;2022-07-09T07:51:55;95380.19;;;18.04;84.83
69570;BME280;56781;42.292;23.146;2022-07-09T07:54:22;95366.50;;;17.81;85.64
69570;BME280;56781;42.292;23.146;2022-07-09T07:56:49;95361.09;;;17.81;85.44
69570;BME280;56781;42.292;23.146;2022-07-09T07:59:19;95392.50;;;18.01;85.53
69570;BME280;56781;42.292;23.146;2022-07-09T08:01:46;95400.31;;;17.87;85.11
69570;BME280;56781;42.292;23.146;2022-07-09T08:04:13;95400.91;;;17.96;85.69
69570;BME280;56781;42.292;23.146;2022-07-09T08:06:40;95371.47;;;17.79;85.38
69570;BME280;56781;42.292;23.146;2022-07-09T08:09:07;95321.59;;;17.48;84.42
69570;BME280;56781;42.292;23.146;2022-07-09T08:11:34;95390.59;;;18.02;86.14
69570;BME280;56781;42.292;23.146;2022-07-09T08:14:01;95378.69;;;17.75;85.71
69570;BME280;56781;42.292;23.146;2022-07-09T08:16:28;95356.41;;;17.65;84.64
69570;BME280;56781;42.292;23.146;2022-07-09T08:18:55;95400.38;;;17.90;84.63
69570;BME280;56781;42.292;23.146;2022-07-09T08:21:22;95387.03;;;17.82;85.34
69570;BME280;56781;42.292;23.146;2022-07-09T08:23:50;95353.25;;;17.63;86.22
69570;BME280;56781;42.292;23.146;2022-07-09T08:26:24;95413.47;;;18.04;84.52
69570;BME280;56781;42.292;23.146;2022-07-09T08:28:52;95403.34;;;18.01;84.81
69570;BME280;56781;42.292;23.146;2022-07-09T08:31:20;95365.34;;;17.82;85.28
69570;BME280;56781;42.292;23.146;2022-07-09T08:33:50;95383.69;;;17.88;85.46
69570;BME280;56781;42.292;23.146;2022-07-09T08:36:17;95379.34;;;17.84;84.47
69570;BME280;56781;42.292;23.146;2022-07-09T08:38:44;95414.81;;;18.10;85.71
69570;BME280;56781;42.292;23.146;2022-07-09T08:41:13;95393.22;;;17.98;85.55
69570;BME280;56781;42.292;23.146;2022-07-09T08:43:51;95386.66;;;17.99;84.51
69570;BME280;56781;42.292;23.146;2022-07-09T08:46:19;95386.06;;;18.06;83.57
69570;BME280;56781;42.292;23.146;2022-07-09T08:48:46;95419.16;;;18.31;83.47
69570;BME280;56781;42.292;23.146;2022-07-09T08:51:13;95374.06;;;18.07;85.36
69570;BME280;56781;42.292;23.146;2022-07-09T08:53:44;95405.94;;;18.29;82.07
69570;BME280;56781;42.292;23.146;2022-07-09T08:56:11;95389.00;;;18.16;84.54
69570;BME280;56781;42.292;23.146;2022-07-09T08:58:38;95412.50;;;18.28;84.05
69570;BME280;56781;42.292;23.146;2022-07-09T09:01:06;95382.13;;;18.03;84.32
69570;BME280;56781;42.292;23.146;2022-07-09T09:03:36;95408.50;;;18.22;84.22
69570;BME280;56781;42.292;23.146;2022-07-09T09:06:05;95369.38;;;17.88;83.97
69570;BME280;56781;42.292;23.146;2022-07-09T09:08:34;95379.22;;;17.96;84.34
69570;BME280;56781;42.292;23.146;2022-07-09T09:11:08;95402.31;;;18.22;84.05
69570;BME280;56781;42.292;23.146;2022-07-09T09:13:48;95370.59;;;17.90;83.42
69570;BME280;56781;42.292;23.146;2022-07-09T09:16:17;95398.97;;;18.12;82.64
69570;BME280;56781;42.292;23.146;2022-07-09T09:18:47;95406.06;;;18.17;81.64
69570;BME280;56781;42.292;23.146;2022-07-09T09:21:16;95390.25;;;18.03;81.89
69570;BME280;56781;42.292;23.146;2022-07-09T09:23:50;95371.38;;;17.91;82.03
69570;BME280;56781;42.292;23.146;2022-07-09T09:26:20;95393.22;;;17.98;81.71
69570;BME280;56781;42.292;23.146;2022-07-09T09:28:54;95379.50;;;17.91;82.95
69570;BME280;56781;42.292;23.146;2022-07-09T09:31:23;95406.69;;;18.10;81.64
69570;BME280;56781;42.292;23.146;2022-07-09T09:33:52;95415.34;;;18.16;81.42
69570;BME280;56781;42.292;23.146;2022-07-09T09:36:35;95396.81;;;18.02;81.59
69570;BME280;56781;42.292;23.146;2022-07-09T09:39:11;95394.88;;;18.19;81.60
69570;BME280;56781;42.292;23.146;2022-07-09T09:41:39;95381.34;;;18.19;81.48
69570;BME280;56781;42.292;23.146;2022-07-09T09:44:09;95399.41;;;18.30;81.08
69570;BME280;56781;42.292;23.146;2022-07-09T09:46:38;95407.41;;;18.43;81.15
69570;BME280;56781;42.292;23.146;2022-07-09T09:49:10;95372.06;;;18.55;81.29
69570;BME280;56781;42.292;23.146;2022-07-09T09:51:49;95378.84;;;18.65;80.48
69570;BME280;56781;42.292;23.146;2022-07-09T09:54:19;95382.09;;;18.70;79.98
69570;BME280;56781;42.292;23.146;2022-07-09T09:56:46;95396.25;;;18.99;78.86
69570;BME280;56781;42.292;23.146;2022-07-09T09:59:14;95401.44;;;18.88;78.89
69570;BME280;56781;42.292;23.146;2022-07-09T10:01:42;95373.59;;;18.91;79.97
69570;BME280;56781;42.292;23.146;2022-07-09T10:04:11;95378.91;;;19.03;79.36
69570;BME280;56781;42.292;23.146;2022-07-09T10:06:39;95364.91;;;19.01;78.08
69570;BME280;56781;42.292;23.146;2022-07-09T10:09:07;95373.03;;;19.21;78.37
69570;BME280;56781;42.292;23.146;2022-07-09T10:11:49;95344.03;;;19.25;79.22
69570;BME280;56781;42.292;23.146;2022-07-09T10:16:55;95352.09;;;19.41;77.43
69570;BME280;56781;42.292;23.146;2022-07-09T10:19:29;95386.53;;;19.79;75.96
69570;BME280;56781;42.292;23.146;2022-07-09T10:21:58;95381.44;;;19.78;76.18
69570;BME280;56781;42.292;23.146;2022-07-09T10:24:27;95345.41;;;19.58;77.12
69570;BME280;56781;42.292;23.146;2022-07-09T10:27:10;95359.66;;;19.74;77.73
69570;BME280;56781;42.292;23.146;2022-07-09T10:32:30;95359.56;;;19.47;75.53
69570;BME280;56781;42.292;23.146;2022-07-09T10:35:03;95354.47;;;19.46;76.51
69570;BME280;56781;42.292;23.146;2022-07-09T10:40:14;95358.69;;;19.63;77.43
69570;BME280;56781;42.292;23.146;2022-07-09T10:42:58;95319.44;;;19.37;73.09
69570;BME280;56781;42.292;23.146;2022-07-09T10:45:27;95362.91;;;19.60;77.47
69570;BME280;56781;42.292;23.146;2022-07-09T10:47:58;95335.84;;;19.44;76.77
69570;BME280;56781;42.292;23.146;2022-07-09T10:50:28;95328.13;;;19.46;76.82
69570;BME280;56781;42.292;23.146;2022-07-09T10:52:59;95370.97;;;19.57;75.12
69570;BME280;56781;42.292;23.146;2022-07-09T10:55:27;95360.59;;;19.39;74.55
69570;BME280;56781;42.292;23.146;2022-07-09T10:57:58;95339.13;;;19.11;77.97
69570;BME280;56781;42.292;23.146;2022-07-09T11:00:27;95358.16;;;19.34;77.80
69570;BME280;56781;42.292;23.146;2022-07-09T11:03:04;95291.06;;;19.12;77.60
69570;BME280;56781;42.292;23.146;2022-07-09T11:05:54;95378.56;;;19.67;75.73
69570;BME280;56781;42.292;23.146;2022-07-09T11:08:19;95366.31;;;19.34;75.76
69570;BME280;56781;42.292;23.146;2022-07-09T11:10:46;95372.88;;;19.33;76.49
69570;BME280;56781;42.292;23.146;2022-07-09T11:13:17;95366.47;;;19.22;77.22
69570;BME280;56781;42.292;23.146;2022-07-09T11:15:44;95375.47;;;19.26;77.39
69570;BME280;56781;42.292;23.146;2022-07-09T11:18:12;95357.03;;;19.16;76.87
69570;BME280;56781;42.292;23.146;2022-07-09T11:20:44;95351.78;;;19.03;79.31
69570;BME280;56781;42.292;23.146;2022-07-09T11:23:13;95325.53;;;18.72;77.31
69570;BME280;56781;42.292;23.146;2022-07-09T11:25:45;95337.16;;;18.53;79.16
69570;BME280;56781;42.292;23.146;2022-07-09T11:28:25;95354.56;;;18.52;78.15
69570;BME280;56781;42.292;23.146;2022-07-09T11:31:03;95382.69;;;18.64;78.72
69570;BME280;56781;42.292;23.146;2022-07-09T11:33:36;95357.75;;;18.38;78.96
69570;BME280;56781;42.292;23.146;2022-07-09T11:36:22;95362.94;;;18.28;78.88
69570;BME280;56781;42.292;23.146;2022-07-09T11:38:52;95363.75;;;18.12;79.03
69570;BME280;56781;42.292;23.146;2022-07-09T11:41:20;95380.88;;;18.16;79.69
69570;BME280;56781;42.292;23.146;2022-07-09T11:43:48;95394.31;;;18.29;79.67
69570;BME280;56781;42.292;23.146;2022-07-09T11:46:19;95356.19;;;18.02;79.26
69570;BME280;56781;42.292;23.146;2022-07-09T11:48:54;95374.34;;;18.02;78.71
69570;BME280;56781;42.292;23.146;2022-07-09T11:51:30;95383.81;;;18.43;79.52
69570;BME280;56781;42.292;23.146;2022-07-09T11:53:57;95415.94;;;18.76;79.83
69570;BME280;56781;42.292;23.146;2022-07-09T11:56:24;95409.03;;;18.63;77.67
69570;BME280;56781;42.292;23.146;2022-07-09T11:58:52;95399.13;;;18.35;78.45
69570;BME280;56781;42.292;23.146;2022-07-09T12:01:19;95391.34;;;18.18;77.24
69570;BME280;56781;42.292;23.146;2022-07-09T12:03:50;95432.81;;;18.19;77.42
69570;BME280;56781;42.292;23.146;2022-07-09T12:06:17;95396.19;;;17.93;79.11
69570;BME280;56781;42.292;23.146;2022-07-09T12:08:44;95424.41;;;17.92;78.14
69570;BME280;56781;42.292;23.146;2022-07-09T12:11:11;95356.81;;;17.36;78.29
69570;BME280;56781;42.292;23.146;2022-07-09T12:13:38;95429.44;;;17.78;79.47
69570;BME280;56781;42.292;23.146;2022-07-09T12:16:05;95387.47;;;17.56;79.23
69570;BME280;56781;42.292;23.146;2022-07-09T12:18:32;95415.09;;;17.61;81.21
69570;BME280;56781;42.292;23.146;2022-07-09T12:21:00;95373.25;;;17.43;80.37
69570;BME280;56781;42.292;23.146;2022-07-09T12:23:27;95408.63;;;17.66;79.30
69570;BME280;56781;42.292;23.146;2022-07-09T12:25:54;95372.16;;;17.32;78.93
69570;BME280;56781;42.292;23.146;2022-07-09T12:28:21;95375.31;;;17.34;79.66
69570;BME280;56781;42.292;23.146;2022-07-09T12:30:48;95415.09;;;17.61;80.08
69570;BME280;56781;42.292;23.146;2022-07-09T12:33:16;95400.56;;;17.38;79.26
69570;BME280;56781;42.292;23.146;2022-07-09T12:35:43;95387.72;;;17.35;80.81
69570;BME280;56781;42.292;23.146;2022-07-09T12:38:10;95370.38;;;17.08;81.74
69570;BME280;56781;42.292;23.146;2022-07-09T12:40:37;95387.19;;;17.29;80.86
69570;BME280;56781;42.292;23.146;2022-07-09T12:43:04;95400.25;;;17.55;80.82
69570;BME280;56781;42.292;23.146;2022-07-09T12:45:31;95414.84;;;17.66;81.73
69570;BME280;56781;42.292;23.146;2022-07-09T12:47:59;95402.34;;;17.62;78.71
69570;BME280;56781;42.292;23.146;2022-07-09T12:50:26;95344.31;;;17.31;79.11
69570;BME280;56781;42.292;23.146;2022-07-09T12:52:53;95411.59;;;17.89;79.31
69570;BME280;56781;42.292;23.146;2022-07-09T12:55:21;95389.28;;;17.80;78.74
69570;BME280;56781;42.292;23.146;2022-07-09T12:57:48;95378.78;;;17.62;78.71
69570;BME280;56781;42.292;23.146;2022-07-09T13:00:15;95411.72;;;17.80;77.96
69570;BME280;56781;42.292;23.146;2022-07-09T13:02:42;95423.47;;;17.72;78.59